createdAt,value
2018-07-04T00:01:53.053Z,2.13
2018-07-04T00:04:32.671Z,2.27
2018-07-04T00:07:12.197Z,2.30
2018-07-04T00:09:52.220Z,2.10
2018-07-04T00:12:31.774Z,2.50
2018-07-04T00:15:11.241Z,2.40
2018-07-04T00:17:50.958Z,3.23
2018-07-04T00:20:36.017Z,2.57
2018-07-04T00:23:10.153Z,2.50
2018-07-04T00:25:49.845Z,2.90
2018-07-04T00:28:29.291Z,2.57
2018-07-04T00:31:03.056Z,2.73
2018-07-04T00:33:42.766Z,2.63
2018-07-04T00:36:22.440Z,2.87
2018-07-04T00:39:02.064Z,2.77
2018-07-04T00:41:41.621Z,2.30
2018-07-04T00:44:21.164Z,2.33
2018-07-04T00:47:00.792Z,2.20
2018-07-04T00:49:40.304Z,2.73
2018-07-04T00:52:19.803Z,2.53
2018-07-04T00:54:59.537Z,2.50
2018-07-04T00:57:39.254Z,2.70
2018-07-04T01:00:18.692Z,2.47
2018-07-04T01:02:58.349Z,2.60
2018-07-04T01:05:38.000Z,2.20
2018-07-04T01:08:17.453Z,2.27
2018-07-04T01:10:57.006Z,2.47
2018-07-04T01:13:30.441Z,2.30
2018-07-04T01:16:09.903Z,2.53
2018-07-04T01:18:49.404Z,2.40
2018-07-04T01:21:28.962Z,2.60
2018-07-04T01:24:08.547Z,2.80
2018-07-04T01:26:48.040Z,2.60
2018-07-04T01:29:27.534Z,2.63
2018-07-04T01:32:07.051Z,2.87
2018-07-04T01:34:46.638Z,2.33
2018-07-04T01:37:26.216Z,2.33
2018-07-04T01:40:05.866Z,2.83
2018-07-04T01:42:45.387Z,2.77
2018-07-04T01:45:25.050Z,2.40
2018-07-04T01:48:04.680Z,2.60
2018-07-04T01:50:44.392Z,2.70
2018-07-04T01:53:23.948Z,2.57
2018-07-04T01:56:03.486Z,2.73
2018-07-04T01:58:43.057Z,2.70
2018-07-04T02:01:22.592Z,2.80
2018-07-04T02:04:02.262Z,2.70
2018-07-04T02:06:35.978Z,2.53
2018-07-04T02:09:15.515Z,2.87
2018-07-04T02:11:54.978Z,3.13
2018-07-04T02:14:34.549Z,2.87
2018-07-04T02:17:14.129Z,2.70
2018-07-04T02:19:53.603Z,3.00
2018-07-04T02:22:33.384Z,3.13
2018-07-04T02:25:12.921Z,2.90
2018-07-04T02:27:52.486Z,3.20
2018-07-04T02:30:32.086Z,3.20
2018-07-04T02:33:11.560Z,3.03
2018-07-04T02:35:51.164Z,2.70
2018-07-04T02:38:30.637Z,3.00
2018-07-04T02:41:10.054Z,3.20
2018-07-04T02:43:49.495Z,3.33
2018-07-04T02:46:34.490Z,2.90
2018-07-04T02:49:14.065Z,2.90
2018-07-04T02:51:53.675Z,2.70
2018-07-04T02:54:33.288Z,2.70
2018-07-04T02:57:12.890Z,3.00
2018-07-04T02:59:52.494Z,3.10
2018-07-04T03:02:32.149Z,2.90
2018-07-04T03:05:12.856Z,2.80
2018-07-04T03:07:52.708Z,2.80
2018-07-04T03:10:32.635Z,2.83
2018-07-04T03:13:12.216Z,2.90
2018-07-04T03:15:51.754Z,3.20
2018-07-04T03:18:31.347Z,2.80
2018-07-04T03:21:11.113Z,2.83
2018-07-04T03:23:50.769Z,2.93
2018-07-04T03:26:30.250Z,3.43
2018-07-04T03:29:09.782Z,3.40
2018-07-04T03:31:49.305Z,3.43
2018-07-04T03:34:28.912Z,3.17
2018-07-04T03:37:08.409Z,3.10
2018-07-04T03:39:47.792Z,2.80
2018-07-04T03:42:27.394Z,2.83
2018-07-04T03:45:06.988Z,3.50
2018-07-04T03:47:40.694Z,3.07
2018-07-04T03:50:20.240Z,3.37
2018-07-04T03:52:59.806Z,3.40
2018-07-04T03:55:39.554Z,3.17
2018-07-04T03:58:19.011Z,3.50
2018-07-04T04:00:58.488Z,3.30
2018-07-04T04:03:37.907Z,3.93
2018-07-04T04:06:17.380Z,3.43
2018-07-04T04:08:50.961Z,3.50
2018-07-04T04:11:30.484Z,3.23
2018-07-04T04:14:10.062Z,3.37
2018-07-04T04:16:43.623Z,3.60
2018-07-04T04:19:28.188Z,3.47
2018-07-04T04:22:07.715Z,3.73
2018-07-04T04:24:47.421Z,3.50
2018-07-04T04:27:26.891Z,3.63
2018-07-04T04:30:06.438Z,3.20
2018-07-04T04:32:45.937Z,4.03
2018-07-04T04:35:30.761Z,3.17
2018-07-04T04:38:10.401Z,3.60
2018-07-04T04:40:50.028Z,3.17
2018-07-04T04:43:29.741Z,3.33
2018-07-04T04:46:09.854Z,3.40
2018-07-04T04:48:49.362Z,3.47
2018-07-04T04:51:28.966Z,3.27
2018-07-04T04:54:08.619Z,3.53
2018-07-04T04:56:49.254Z,3.60
2018-07-04T04:59:28.909Z,3.73
2018-07-04T05:02:08.327Z,3.60
2018-07-04T05:04:47.889Z,3.60
2018-07-04T05:07:27.368Z,3.23
2018-07-04T05:10:00.979Z,3.20
2018-07-04T05:12:34.548Z,3.10
2018-07-04T05:15:14.063Z,3.03
2018-07-04T05:17:53.742Z,3.47
2018-07-04T05:20:33.441Z,2.53
2018-07-04T05:23:13.494Z,3.00
2018-07-04T05:25:53.107Z,2.87
2018-07-04T05:28:32.733Z,2.97
2018-07-04T05:31:06.328Z,2.50
2018-07-04T05:33:46.135Z,2.90
2018-07-04T05:36:25.804Z,2.70
2018-07-04T05:39:05.622Z,3.00
2018-07-04T05:41:45.346Z,2.53
2018-07-04T05:44:24.862Z,2.90
2018-07-04T05:47:04.734Z,2.90
2018-07-04T05:49:44.884Z,2.70
2018-07-04T05:52:24.374Z,2.80
2018-07-04T05:55:04.569Z,2.40
2018-07-04T05:57:44.257Z,2.20
2018-07-04T06:00:23.990Z,2.90
2018-07-04T06:03:03.461Z,2.87
2018-07-04T06:05:43.098Z,2.27
2018-07-04T06:08:22.751Z,2.33
2018-07-04T06:11:02.291Z,2.40
2018-07-04T06:13:41.917Z,2.57
2018-07-04T06:16:21.638Z,2.57
2018-07-04T06:19:01.284Z,2.20
2018-07-04T06:21:40.970Z,2.27
2018-07-04T06:24:20.663Z,2.00
2018-07-04T06:27:00.524Z,2.40
2018-07-04T06:29:40.167Z,2.10
2018-07-04T06:32:19.681Z,2.00
2018-07-04T06:34:59.215Z,2.20
2018-07-04T06:37:39.173Z,2.00
2018-07-04T06:40:06.941Z,2.20
2018-07-04T06:42:34.921Z,1.73
2018-07-04T06:45:02.217Z,2.00
2018-07-04T06:47:29.551Z,2.00
2018-07-04T06:49:56.850Z,1.50
2018-07-04T06:52:24.140Z,2.00
2018-07-04T06:54:51.783Z,1.90
2018-07-04T06:57:20.132Z,2.13
2018-07-04T06:59:47.978Z,1.90
2018-07-04T07:02:19.499Z,1.80
2018-07-04T07:05:00.056Z,2.07
2018-07-04T07:07:39.671Z,1.97
2018-07-04T07:10:19.311Z,1.30
2018-07-04T07:12:58.748Z,1.70
2018-07-04T07:15:38.284Z,1.80
2018-07-04T07:18:17.908Z,1.50
2018-07-04T07:20:57.452Z,1.53
2018-07-04T07:23:37.030Z,1.93
2018-07-04T07:26:10.607Z,1.63
2018-07-04T07:28:50.134Z,1.90
2018-07-04T07:31:29.716Z,2.00
2018-07-04T07:34:09.271Z,1.67
2018-07-04T07:36:49.100Z,2.47
2018-07-04T07:39:28.918Z,1.85
2018-07-04T07:42:08.586Z,1.80
2018-07-04T07:44:48.236Z,1.52
2018-07-04T07:47:27.777Z,1.92
2018-07-04T07:50:07.232Z,1.62
2018-07-04T07:52:46.796Z,2.33
2018-07-04T07:55:26.522Z,1.30
2018-07-04T07:58:00.082Z,1.37
2018-07-04T08:00:39.615Z,1.60
2018-07-04T08:03:19.172Z,1.80
2018-07-04T08:05:59.005Z,1.90
2018-07-04T08:08:38.498Z,1.40
2018-07-04T08:11:18.187Z,1.30
2018-07-04T08:13:57.695Z,1.20
2018-07-04T08:16:37.264Z,1.27
2018-07-04T08:19:16.764Z,1.70
2018-07-04T08:21:56.547Z,1.67
2018-07-04T08:24:36.043Z,1.70
2018-07-04T08:27:15.712Z,1.22
2018-07-04T08:29:55.203Z,1.52
2018-07-04T08:32:34.637Z,1.62
2018-07-04T08:35:14.144Z,1.40
2018-07-04T08:37:47.894Z,1.77
2018-07-04T08:40:27.370Z,1.32
2018-07-04T08:43:06.976Z,1.72
2018-07-04T08:45:46.549Z,1.30
2018-07-04T08:48:26.223Z,1.20
2018-07-04T08:51:05.841Z,1.30
2018-07-04T08:53:45.391Z,1.50
2018-07-04T08:56:24.924Z,1.25
2018-07-04T08:59:04.701Z,2.45
2018-07-04T09:01:44.267Z,1.30
2018-07-04T09:04:23.860Z,1.10
2018-07-04T09:07:03.393Z,1.30
2018-07-04T09:09:36.977Z,1.20
2018-07-04T09:12:16.479Z,1.30
2018-07-04T09:14:56.265Z,1.20
2018-07-04T09:17:35.869Z,1.55
2018-07-04T09:20:15.376Z,1.40
2018-07-04T09:22:55.097Z,1.17
2018-07-04T09:25:34.735Z,1.40
2018-07-04T09:28:14.339Z,1.92
2018-07-04T09:30:53.866Z,1.40
2018-07-04T09:33:33.516Z,1.27
2018-07-04T09:36:13.048Z,1.40
2018-07-04T09:38:52.584Z,1.42
2018-07-04T09:41:32.200Z,1.47
2018-07-04T09:44:11.711Z,1.60
2018-07-04T09:46:51.429Z,1.40
2018-07-04T09:49:31.013Z,1.30
2018-07-04T09:52:04.528Z,1.40
2018-07-04T09:54:44.044Z,1.50
2018-07-04T09:57:17.590Z,1.30
2018-07-04T09:59:57.158Z,1.40
2018-07-04T10:02:36.783Z,1.27
2018-07-04T10:05:16.356Z,1.40
2018-07-04T10:07:55.973Z,1.45
2018-07-04T10:10:35.476Z,1.40
2018-07-04T10:13:15.119Z,1.40
2018-07-04T10:15:54.809Z,1.50
2018-07-04T10:18:34.481Z,1.47
2018-07-04T10:21:14.148Z,1.40
2018-07-04T10:23:53.643Z,1.40
2018-07-04T10:26:33.313Z,1.32
2018-07-04T10:29:12.792Z,1.90
2018-07-04T10:31:52.336Z,1.50
2018-07-04T10:34:31.813Z,1.30
2018-07-04T10:37:11.378Z,1.50
2018-07-04T10:39:51.092Z,1.50
2018-07-04T10:42:24.834Z,1.80
2018-07-04T10:45:04.263Z,1.42
2018-07-04T10:47:43.795Z,1.80
2018-07-04T10:50:23.400Z,1.90
2018-07-04T10:53:02.952Z,1.30
2018-07-04T10:55:42.513Z,1.70
2018-07-04T10:58:21.964Z,1.40
2018-07-04T11:01:02.243Z,1.57
2018-07-04T11:03:43.823Z,1.22
2018-07-04T11:06:23.433Z,1.47
2018-07-04T11:09:03.043Z,1.27
2018-07-04T11:11:36.730Z,1.20
2018-07-04T11:14:16.336Z,1.22
2018-07-04T11:16:55.979Z,1.30
2018-07-04T11:19:35.519Z,1.30
2018-07-04T11:22:15.111Z,1.35
2018-07-04T11:24:54.748Z,1.20
2018-07-04T11:27:28.366Z,1.50
2018-07-04T11:30:07.927Z,1.32
2018-07-04T11:32:47.410Z,1.40
2018-07-04T11:35:26.944Z,1.35
2018-07-04T11:38:06.489Z,1.40
2018-07-04T11:40:46.015Z,1.40
2018-07-04T11:43:25.468Z,1.65
2018-07-04T11:45:55.080Z,1.20
2018-07-04T11:48:22.618Z,1.50
2018-07-04T11:50:49.889Z,1.20
2018-07-04T11:53:17.315Z,1.30
2018-07-04T11:55:44.636Z,1.40
2018-07-04T11:58:11.912Z,1.40
2018-07-04T12:00:39.198Z,1.27
2018-07-04T12:03:16.585Z,1.40
2018-07-04T12:05:50.184Z,1.50
2018-07-04T12:08:17.487Z,1.60
2018-07-04T12:10:44.801Z,1.30
2018-07-04T12:13:12.101Z,1.80
2018-07-04T12:15:39.559Z,1.30
2018-07-04T12:18:06.823Z,1.45
2018-07-04T12:20:34.147Z,1.70
2018-07-04T12:23:01.420Z,1.40
2018-07-04T12:25:28.696Z,1.35
2018-07-04T12:27:56.159Z,1.17
2018-07-04T12:30:23.430Z,1.30
2018-07-04T12:32:50.705Z,1.30
2018-07-04T12:35:18.092Z,1.42
2018-07-04T12:37:45.433Z,1.27
2018-07-04T12:40:12.835Z,2.27
2018-07-04T12:42:40.121Z,1.40
2018-07-04T12:45:07.388Z,1.40
2018-07-04T12:47:34.667Z,1.70
2018-07-04T12:50:01.937Z,1.32
2018-07-04T12:52:29.233Z,1.30
2018-07-04T12:55:12.305Z,1.77
2018-07-04T12:57:51.888Z,1.20
2018-07-04T13:00:31.563Z,1.30
2018-07-04T13:03:11.000Z,1.40
2018-07-04T13:05:50.703Z,1.50
2018-07-04T13:08:30.239Z,1.40
2018-07-04T13:11:09.828Z,1.40
2018-07-04T13:13:49.684Z,1.40
2018-07-04T13:16:29.375Z,1.40
2018-07-04T13:19:09.052Z,1.42
2018-07-04T13:21:48.803Z,1.30
2018-07-04T13:24:28.377Z,1.37
2018-07-04T13:27:07.837Z,1.80
2018-07-04T13:29:47.366Z,1.27
2018-07-04T13:32:27.003Z,1.40
2018-07-04T13:35:06.461Z,1.27
2018-07-04T13:37:40.082Z,1.75
2018-07-04T13:40:19.612Z,1.62
2018-07-04T13:42:59.132Z,1.40
2018-07-04T13:45:38.662Z,1.70
2018-07-04T13:48:18.356Z,1.95
2018-07-04T13:50:57.897Z,1.50
2018-07-04T13:53:37.306Z,1.50
2018-07-04T13:56:16.827Z,1.30
2018-07-04T13:58:56.509Z,1.42
2018-07-04T14:01:35.904Z,1.30
2018-07-04T14:04:15.628Z,1.60
2018-07-04T14:06:55.192Z,1.50
2018-07-04T14:09:34.749Z,1.60
2018-07-04T14:12:14.363Z,1.72
2018-07-04T14:14:47.930Z,1.77
2018-07-04T14:17:27.421Z,1.40
2018-07-04T14:20:07.076Z,2.22
2018-07-04T14:22:46.567Z,1.37
2018-07-04T14:25:20.222Z,1.60
2018-07-04T14:27:59.831Z,1.62
2018-07-04T14:30:39.350Z,1.60
2018-07-04T14:33:12.891Z,1.40
2018-07-04T14:35:52.448Z,1.40
2018-07-04T14:38:32.015Z,1.50
2018-07-04T14:41:11.537Z,1.50
2018-07-04T14:43:51.014Z,1.37
2018-07-04T14:46:30.504Z,1.45
2018-07-04T14:49:09.996Z,1.40
2018-07-04T14:51:49.691Z,1.50
2018-07-04T14:54:29.449Z,1.30
2018-07-04T14:57:09.147Z,1.52
2018-07-04T14:59:48.806Z,1.50
2018-07-04T15:02:28.221Z,1.65
2018-07-04T15:05:07.867Z,1.40
2018-07-04T15:07:47.468Z,1.72
2018-07-04T15:10:21.014Z,1.67
2018-07-04T15:13:00.558Z,1.77
2018-07-04T15:15:40.113Z,1.40
2018-07-04T15:18:19.680Z,1.80
2018-07-04T15:20:53.399Z,1.60
2018-07-04T15:23:33.081Z,1.40
2018-07-04T15:26:12.621Z,1.50
2018-07-04T15:28:52.307Z,2.00
2018-07-04T15:31:31.827Z,1.60
2018-07-04T15:34:11.481Z,1.60
2018-07-04T15:36:51.133Z,1.57
2018-07-04T15:39:24.865Z,1.37
2018-07-04T15:42:04.448Z,1.47
2018-07-04T15:44:44.316Z,1.20
2018-07-04T15:47:24.150Z,1.77
2018-07-04T15:50:03.730Z,1.62
2018-07-04T15:52:43.334Z,1.30
2018-07-04T15:55:22.886Z,1.75
2018-07-04T15:58:02.746Z,1.60
2018-07-04T16:00:42.384Z,2.10
2018-07-04T16:03:16.514Z,1.65
2018-07-04T16:05:56.528Z,1.52
2018-07-04T16:08:36.156Z,1.70
2018-07-04T16:11:16.019Z,1.85
2018-07-04T16:13:55.480Z,1.60
2018-07-04T16:16:35.033Z,1.50
2018-07-04T16:19:14.498Z,1.65
2018-07-04T16:21:54.114Z,1.62
2018-07-04T16:24:33.641Z,1.52
2018-07-04T16:27:13.181Z,1.40
2018-07-04T16:29:52.620Z,1.75
2018-07-04T16:32:32.052Z,1.70
2018-07-04T16:35:11.672Z,1.60
2018-07-04T16:37:45.238Z,1.60
2018-07-04T16:40:24.769Z,1.50
2018-07-04T16:43:04.352Z,1.50
2018-07-04T16:45:43.905Z,1.57
2018-07-04T16:48:17.582Z,1.52
2018-07-04T16:50:57.047Z,1.70
2018-07-04T16:53:36.587Z,1.77
2018-07-04T16:56:16.206Z,2.20
2018-07-04T16:58:55.916Z,1.60
2018-07-04T17:01:35.556Z,1.70
2018-07-04T17:04:15.169Z,1.60
2018-07-04T17:06:54.827Z,1.62
2018-07-04T17:09:34.248Z,1.57
2018-07-04T17:12:13.866Z,1.60
2018-07-04T17:14:53.320Z,1.50
2018-07-04T17:17:32.891Z,1.95
2018-07-04T17:20:12.585Z,1.57
2018-07-04T17:22:46.154Z,1.90
2018-07-04T17:25:25.680Z,2.87
2018-07-04T17:28:05.291Z,2.20
2018-07-04T17:30:44.763Z,2.10
2018-07-04T17:33:24.457Z,2.10
2018-07-04T17:36:03.917Z,1.90
2018-07-04T17:38:43.360Z,1.67
2018-07-04T17:41:22.928Z,1.60
2018-07-04T17:44:02.452Z,1.45
2018-07-04T17:46:41.979Z,1.77
2018-07-04T17:49:21.787Z,1.77
2018-07-04T17:51:56.361Z,1.80
2018-07-04T17:54:35.899Z,1.82
2018-07-04T17:57:15.412Z,1.40
2018-07-04T17:59:55.013Z,1.52
2018-07-04T18:02:34.471Z,1.52
2018-07-04T18:05:13.914Z,1.65
2018-07-04T18:07:53.453Z,1.75
2018-07-04T18:10:32.952Z,1.70
2018-07-04T18:13:12.456Z,1.92
2018-07-04T18:15:52.056Z,1.70
2018-07-04T18:18:31.550Z,1.70
2018-07-04T18:21:16.524Z,1.52
2018-07-04T18:23:56.131Z,1.62
2018-07-04T18:26:35.829Z,1.57
2018-07-04T18:29:15.500Z,1.85
2018-07-04T18:31:55.134Z,1.52
2018-07-04T18:34:34.538Z,1.62
2018-07-04T18:37:14.263Z,1.87
2018-07-04T18:39:53.882Z,1.60
2018-07-04T18:42:33.582Z,1.87
2018-07-04T18:45:13.037Z,1.50
2018-07-04T18:47:52.465Z,1.50
2018-07-04T18:50:26.049Z,1.60
2018-07-04T18:53:05.628Z,1.72
2018-07-04T18:55:45.205Z,1.67
2018-07-04T18:58:24.797Z,2.10
2018-07-04T19:01:04.542Z,2.35
2018-07-04T19:03:44.224Z,2.22
2018-07-04T19:06:23.821Z,2.65
2018-07-04T19:09:04.713Z,2.40
2018-07-04T19:11:44.267Z,2.57
2018-07-04T19:14:23.988Z,2.30
2018-07-04T19:17:03.591Z,2.37
2018-07-04T19:19:43.552Z,2.30
2018-07-04T19:22:23.384Z,2.50
2018-07-04T19:25:02.977Z,2.17
2018-07-04T19:27:42.602Z,2.67
2018-07-04T19:30:22.159Z,2.60
2018-07-04T19:33:02.844Z,2.90
2018-07-04T19:35:42.549Z,2.90
2018-07-04T19:38:22.306Z,2.83
2018-07-04T19:41:01.885Z,2.47
2018-07-04T19:43:41.433Z,2.63
2018-07-04T19:46:21.032Z,2.80
2018-07-04T19:49:00.640Z,2.80
2018-07-04T19:51:40.277Z,2.40
2018-07-04T19:54:19.738Z,3.07
2018-07-04T19:56:59.286Z,2.83
2018-07-04T19:59:38.771Z,3.00
2018-07-04T20:02:18.184Z,3.00
2018-07-04T20:04:57.869Z,2.57
2018-07-04T20:07:37.542Z,2.70
2018-07-04T20:10:17.187Z,2.57
2018-07-04T20:12:56.707Z,2.67
2018-07-04T20:15:36.213Z,2.60
2018-07-04T20:18:15.848Z,2.57
2018-07-04T20:20:55.390Z,2.73
2018-07-04T20:23:34.923Z,2.50
2018-07-04T20:26:14.460Z,2.50
2018-07-04T20:28:54.127Z,2.50
2018-07-04T20:31:33.569Z,2.23
2018-07-04T20:34:13.308Z,2.70
2018-07-04T20:36:52.793Z,2.50
2018-07-04T20:39:32.413Z,2.87
2018-07-04T20:42:11.935Z,2.80
2018-07-04T20:44:45.520Z,2.70
2018-07-04T20:47:25.115Z,3.00
2018-07-04T20:50:04.556Z,2.83
2018-07-04T20:52:43.963Z,2.80
2018-07-04T20:55:23.768Z,2.60
2018-07-04T20:58:03.346Z,2.60
2018-07-04T21:00:37.760Z,2.87
2018-07-04T21:03:17.808Z,2.73
2018-07-04T21:05:57.552Z,2.90
2018-07-04T21:08:37.368Z,3.00
2018-07-04T21:11:17.940Z,2.77
2018-07-04T21:13:59.552Z,3.20
2018-07-04T21:16:39.615Z,3.43
2018-07-04T21:19:19.211Z,3.10
2018-07-04T21:21:58.644Z,2.80
2018-07-04T21:24:38.435Z,2.77
2018-07-04T21:27:18.108Z,2.80
2018-07-04T21:29:57.529Z,2.40
2018-07-04T21:32:39.024Z,3.10
2018-07-04T21:35:18.519Z,2.73
2018-07-04T21:37:52.057Z,2.83
2018-07-04T21:40:31.529Z,2.80
2018-07-04T21:43:11.135Z,3.13
2018-07-04T21:45:50.649Z,3.00
2018-07-04T21:48:30.216Z,3.03
2018-07-04T21:51:09.770Z,2.80
2018-07-04T21:53:49.292Z,2.90
2018-07-04T21:56:28.921Z,3.10
2018-07-04T21:59:08.411Z,3.33
2018-07-04T22:01:47.922Z,3.47
2018-07-04T22:04:27.390Z,3.70
2018-07-04T22:07:06.935Z,3.20
2018-07-04T22:09:46.590Z,3.40
2018-07-04T22:12:20.351Z,3.40
2018-07-04T22:14:59.877Z,3.30
2018-07-04T22:17:40.471Z,3.60
2018-07-04T22:20:20.382Z,3.00
2018-07-04T22:23:00.061Z,3.17
2018-07-04T22:25:39.744Z,3.30
2018-07-04T22:28:19.620Z,3.40
2018-07-04T22:30:59.041Z,3.10
2018-07-04T22:33:38.569Z,3.37
2018-07-04T22:36:18.217Z,3.40
2018-07-04T22:38:57.721Z,3.20
2018-07-04T22:41:37.246Z,3.70
2018-07-04T22:44:16.828Z,3.40
2018-07-04T22:46:56.633Z,3.50
2018-07-04T22:49:42.821Z,3.10
2018-07-04T22:52:22.476Z,2.97
2018-07-04T22:55:02.814Z,3.20
2018-07-04T22:57:42.493Z,2.80
2018-07-04T23:00:22.036Z,3.43
2018-07-04T23:03:02.572Z,2.83
2018-07-04T23:05:42.275Z,3.30
2018-07-04T23:08:21.837Z,3.40
2018-07-04T23:11:01.364Z,3.00
2018-07-04T23:13:40.923Z,3.30
2018-07-04T23:16:21.607Z,3.30
2018-07-04T23:19:01.232Z,3.50
2018-07-04T23:21:40.888Z,3.20
2018-07-04T23:24:20.331Z,3.67
2018-07-04T23:26:59.780Z,3.60
2018-07-04T23:29:39.207Z,3.57
2018-07-04T23:32:20.036Z,3.77
2018-07-04T23:34:59.833Z,3.77
2018-07-04T23:37:39.400Z,3.63
2018-07-04T23:40:19.128Z,3.87
2018-07-04T23:42:59.801Z,3.63
2018-07-04T23:45:39.368Z,3.73
2018-07-04T23:48:18.840Z,3.83
2018-07-04T23:50:58.382Z,3.63
2018-07-04T23:53:37.864Z,3.77
2018-07-04T23:56:17.426Z,3.73
2018-07-04T23:58:59.285Z,3.93
